sensor_id;sensor_type;location;lat;lon;timestamp;temperature;humidity
6696;DHT22;3385;48.928;10.330;2023-05-07T00:01:46;11.20;99.90
6696;DHT22;3385;48.928;10.330;2023-05-07T00:04:12;11.20;99.90
6696;DHT22;3385;48.928;10.330;2023-05-07T00:06:39;11.20;99.90
6696;DHT22;3385;48.928;10.330;2023-05-07T00:09:05;11.20;99.90
6696;DHT22;3385;48.928;10.330;2023-05-07T00:11:32;11.30;99.90
6696;DHT22;3385;48.928;10.330;2023-05-07T00:13:58;11.20;99.90
6696;DHT22;3385;48.928;10.330;2023-05-07T00:16:24;11.20;99.90
6696;DHT22;3385;48.928;10.330;2023-05-07T00:18:49;11.20;99.90
6696;DHT22;3385;48.928;10.330;2023-05-07T00:21:15;11.20;99.90
6696;DHT22;3385;48.928;10.330;2023-05-07T00:23:41;11.20;99.90
6696;DHT22;3385;48.928;10.330;2023-05-07T00:26:07;11.20;99.90
6696;DHT22;3385;48.928;10.330;2023-05-07T00:28:33;11.00;99.90
6696;DHT22;3385;48.928;10.330;2023-05-07T00:30:59;11.20;99.90
6696;DHT22;3385;48.928;10.330;2023-05-07T00:33:24;11.30;99.90
6696;DHT22;3385;48.928;10.330;2023-05-07T00:35:52;11.20;99.90
6696;DHT22;3385;48.928;10.330;2023-05-07T00:38:19;11.20;99.90
6696;DHT22;3385;48.928;10.330;2023-05-07T00:40:45;11.20;99.90
6696;DHT22;3385;48.928;10.330;2023-05-07T00:43:11;11.20;99.90
6696;DHT22;3385;48.928;10.330;2023-05-07T00:45:38;11.20;99.90
6696;DHT22;3385;48.928;10.330;2023-05-07T00:48:04;11.10;99.90
6696;DHT22;3385;48.928;10.330;2023-05-07T00:50:31;11.20;99.90
6696;DHT22;3385;48.928;10.330;2023-05-07T00:52:57;11.30;99.90
6696;DHT22;3385;48.928;10.330;2023-05-07T00:55:24;11.20;99.90
6696;DHT22;3385;48.928;10.330;2023-05-07T00:57:50;11.10;99.90
6696;DHT22;3385;48.928;10.330;2023-05-07T01:00:16;11.10;99.90
6696;DHT22;3385;48.928;10.330;2023-05-07T01:02:43;11.10;99.90
6696;DHT22;3385;48.928;10.330;2023-05-07T01:05:12;11.00;99.90
6696;DHT22;3385;48.928;10.330;2023-05-07T01:07:40;11.00;99.90
6696;DHT22;3385;48.928;10.330;2023-05-07T01:10:08;11.00;99.90
6696;DHT22;3385;48.928;10.330;2023-05-07T01:12:37;11.00;99.90
6696;DHT22;3385;48.928;10.330;2023-05-07T01:15:03;10.90;99.90
6696;DHT22;3385;48.928;10.330;2023-05-07T01:17:36;10.90;99.90
6696;DHT22;3385;48.928;10.330;2023-05-07T01:20:02;10.90;99.90
6696;DHT22;3385;48.928;10.330;2023-05-07T01:22:34;10.80;99.90
6696;DHT22;3385;48.928;10.330;2023-05-07T01:25:02;10.60;99.90
6696;DHT22;3385;48.928;10.330;2023-05-07T01:27:28;10.60;99.90
6696;DHT22;3385;48.928;10.330;2023-05-07T01:29:54;10.50;99.90
6696;DHT22;3385;48.928;10.330;2023-05-07T01:32:28;10.40;99.90
6696;DHT22;3385;48.928;10.330;2023-05-07T01:34:55;10.40;99.90
6696;DHT22;3385;48.928;10.330;2023-05-07T01:37:21;10.40;99.90
6696;DHT22;3385;48.928;10.330;2023-05-07T01:39:48;10.50;99.90
6696;DHT22;3385;48.928;10.330;2023-05-07T01:42:13;10.40;99.90
6696;DHT22;3385;48.928;10.330;2023-05-07T01:44:40;10.40;99.90
6696;DHT22;3385;48.928;10.330;2023-05-07T01:47:06;10.40;99.90
6696;DHT22;3385;48.928;10.330;2023-05-07T01:49:32;10.40;99.90
6696;DHT22;3385;48.928;10.330;2023-05-07T01:51:58;10.40;99.90
6696;DHT22;3385;48.928;10.330;2023-05-07T01:54:27;10.40;99.90
6696;DHT22;3385;48.928;10.330;2023-05-07T01:56:55;10.40;99.90
6696;DHT22;3385;48.928;10.330;2023-05-07T01:59:21;10.30;99.90
6696;DHT22;3385;48.928;10.330;2023-05-07T02:01:47;10.30;99.90
6696;DHT22;3385;48.928;10.330;2023-05-07T02:04:13;10.40;99.90
6696;DHT22;3385;48.928;10.330;2023-05-07T02:06:38;10.40;99.90
6696;DHT22;3385;48.928;10.330;2023-05-07T02:09:04;10.40;99.90
6696;DHT22;3385;48.928;10.330;2023-05-07T02:11:30;10.40;99.90
6696;DHT22;3385;48.928;10.330;2023-05-07T02:13:56;10.40;99.90
6696;DHT22;3385;48.928;10.330;2023-05-07T02:16:22;10.40;99.90
6696;DHT22;3385;48.928;10.330;2023-05-07T02:18:48;10.30;99.90
6696;DHT22;3385;48.928;10.330;2023-05-07T02:21:14;10.20;99.90
6696;DHT22;3385;48.928;10.330;2023-05-07T02:23:40;10.10;99.90
6696;DHT22;3385;48.928;10.330;2023-05-07T02:26:06;10.20;99.90
6696;DHT22;3385;48.928;10.330;2023-05-07T02:28:31;9.90;99.90
6696;DHT22;3385;48.928;10.330;2023-05-07T02:30:57;9.80;99.90
6696;DHT22;3385;48.928;10.330;2023-05-07T02:33:26;9.70;99.90
6696;DHT22;3385;48.928;10.330;2023-05-07T02:35:52;9.60;99.90
6696;DHT22;3385;48.928;10.330;2023-05-07T02:38:18;9.30;99.90
6696;DHT22;3385;48.928;10.330;2023-05-07T02:40:44;9.40;99.90
6696;DHT22;3385;48.928;10.330;2023-05-07T02:43:09;9.30;99.90
6696;DHT22;3385;48.928;10.330;2023-05-07T02:45:35;9.30;99.90
6696;DHT22;3385;48.928;10.330;2023-05-07T02:48:03;9.30;99.90
6696;DHT22;3385;48.928;10.330;2023-05-07T02:50:29;9.30;99.90
6696;DHT22;3385;48.928;10.330;2023-05-07T02:52:55;9.30;99.90
6696;DHT22;3385;48.928;10.330;2023-05-07T02:55:21;9.30;99.90
6696;DHT22;3385;48.928;10.330;2023-05-07T02:57:47;9.30;99.90
6696;DHT22;3385;48.928;10.330;2023-05-07T03:00:17;9.20;99.90
6696;DHT22;3385;48.928;10.330;2023-05-07T03:02:44;9.20;99.90
6696;DHT22;3385;48.928;10.330;2023-05-07T03:05:10;9.00;99.90
6696;DHT22;3385;48.928;10.330;2023-05-07T03:07:37;9.20;99.90
6696;DHT22;3385;48.928;10.330;2023-05-07T03:10:04;9.40;99.90
6696;DHT22;3385;48.928;10.330;2023-05-07T03:12:30;9.10;99.90
6696;DHT22;3385;48.928;10.330;2023-05-07T03:14:56;9.20;99.90
6696;DHT22;3385;48.928;10.330;2023-05-07T03:17:22;9.20;99.90
6696;DHT22;3385;48.928;10.330;2023-05-07T03:19:48;9.30;99.90
6696;DHT22;3385;48.928;10.330;2023-05-07T03:22:14;9.30;99.90
6696;DHT22;3385;48.928;10.330;2023-05-07T03:24:40;9.30;99.90
6696;DHT22;3385;48.928;10.330;2023-05-07T03:27:05;9.30;99.90
6696;DHT22;3385;48.928;10.330;2023-05-07T03:29:31;9.20;99.90
6696;DHT22;3385;48.928;10.330;2023-05-07T03:31:57;9.20;99.90
6696;DHT22;3385;48.928;10.330;2023-05-07T03:34:23;9.10;99.90
6696;DHT22;3385;48.928;10.330;2023-05-07T03:36:49;9.30;99.90
6696;DHT22;3385;48.928;10.330;2023-05-07T03:39:15;9.10;99.90
6696;DHT22;3385;48.928;10.330;2023-05-07T03:41:41;9.00;99.90
6696;DHT22;3385;48.928;10.330;2023-05-07T03:44:06;9.20;99.90
6696;DHT22;3385;48.928;10.330;2023-05-07T03:46:33;9.10;99.90
6696;DHT22;3385;48.928;10.330;2023-05-07T03:48:59;11.50;99.90
6696;DHT22;3385;48.928;10.330;2023-05-07T03:51:25;9.20;99.90
6696;DHT22;3385;48.928;10.330;2023-05-07T03:53:51;9.20;99.90
6696;DHT22;3385;48.928;10.330;2023-05-07T03:56:22;9.30;99.90
6696;DHT22;3385;48.928;10.330;2023-05-07T03:58:48;9.20;99.90
6696;DHT22;3385;48.928;10.330;2023-05-07T04:01:14;9.10;99.90
6696;DHT22;3385;48.928;10.330;2023-05-07T04:03:40;9.10;99.90
6696;DHT22;3385;48.928;10.330;2023-05-07T04:06:05;9.00;99.90
6696;DHT22;3385;48.928;10.330;2023-05-07T04:08:31;9.00;99.90
6696;DHT22;3385;48.928;10.330;2023-05-07T04:10:57;9.00;99.90
6696;DHT22;3385;48.928;10.330;2023-05-07T04:13:23;9.10;99.90
6696;DHT22;3385;48.928;10.330;2023-05-07T04:15:49;9.00;99.90
6696;DHT22;3385;48.928;10.330;2023-05-07T04:18:15;9.00;99.90
6696;DHT22;3385;48.928;10.330;2023-05-07T04:20:41;8.90;99.90
6696;DHT22;3385;48.928;10.330;2023-05-07T04:23:07;9.20;99.90
6696;DHT22;3385;48.928;10.330;2023-05-07T04:25:33;9.20;99.90
6696;DHT22;3385;48.928;10.330;2023-05-07T04:27:59;9.30;99.90
6696;DHT22;3385;48.928;10.330;2023-05-07T04:30:25;9.40;99.90
6696;DHT22;3385;48.928;10.330;2023-05-07T04:32:52;9.40;99.90
6696;DHT22;3385;48.928;10.330;2023-05-07T04:35:21;9.30;99.90
6696;DHT22;3385;48.928;10.330;2023-05-07T04:37:47;9.70;99.90
6696;DHT22;3385;48.928;10.330;2023-05-07T04:40:13;9.40;99.90
6696;DHT22;3385;48.928;10.330;2023-05-07T04:42:39;9.40;99.90
6696;DHT22;3385;48.928;10.330;2023-05-07T04:45:05;9.30;99.90
6696;DHT22;3385;48.928;10.330;2023-05-07T04:47:31;9.30;99.90
6696;DHT22;3385;48.928;10.330;2023-05-07T04:49:57;9.30;99.90
6696;DHT22;3385;48.928;10.330;2023-05-07T04:52:23;9.40;99.90
6696;DHT22;3385;48.928;10.330;2023-05-07T04:54:49;9.50;99.90
6696;DHT22;3385;48.928;10.330;2023-05-07T04:57:15;9.50;99.90
6696;DHT22;3385;48.928;10.330;2023-05-07T04:59:42;9.70;99.90
6696;DHT22;3385;48.928;10.330;2023-05-07T05:02:08;9.80;99.90
6696;DHT22;3385;48.928;10.330;2023-05-07T05:04:34;9.80;99.90
6696;DHT22;3385;48.928;10.330;2023-05-07T05:07:00;10.60;99.90
6696;DHT22;3385;48.928;10.330;2023-05-07T05:09:25;10.00;99.90
6696;DHT22;3385;48.928;10.330;2023-05-07T05:11:51;10.20;99.90
6696;DHT22;3385;48.928;10.330;2023-05-07T05:14:17;10.20;99.90
6696;DHT22;3385;48.928;10.330;2023-05-07T05:16:42;10.40;99.90
6696;DHT22;3385;48.928;10.330;2023-05-07T05:19:08;10.50;99.90
6696;DHT22;3385;48.928;10.330;2023-05-07T05:21:34;10.90;99.90
6696;DHT22;3385;48.928;10.330;2023-05-07T05:23:59;11.10;99.90
6696;DHT22;3385;48.928;10.330;2023-05-07T05:26:25;11.40;99.90
6696;DHT22;3385;48.928;10.330;2023-05-07T05:28:51;11.60;99.90
6696;DHT22;3385;48.928;10.330;2023-05-07T05:31:17;11.80;99.90
6696;DHT22;3385;48.928;10.330;2023-05-07T05:33:42;11.90;99.90
6696;DHT22;3385;48.928;10.330;2023-05-07T05:36:11;12.40;99.90
6696;DHT22;3385;48.928;10.330;2023-05-07T05:38:39;12.80;99.90
6696;DHT22;3385;48.928;10.330;2023-05-07T05:41:05;13.00;99.90
6696;DHT22;3385;48.928;10.330;2023-05-07T05:43:31;13.20;99.90
6696;DHT22;3385;48.928;10.330;2023-05-07T05:45:57;13.40;99.90
6696;DHT22;3385;48.928;10.330;2023-05-07T05:48:23;13.40;99.90
6696;DHT22;3385;48.928;10.330;2023-05-07T05:50:49;13.50;99.90
6696;DHT22;3385;48.928;10.330;2023-05-07T05:53:15;13.50;99.90
6696;DHT22;3385;48.928;10.330;2023-05-07T05:55:41;13.60;99.90
6696;DHT22;3385;48.928;10.330;2023-05-07T05:58:07;13.70;99.90
6696;DHT22;3385;48.928;10.330;2023-05-07T06:00:36;13.50;99.90
6696;DHT22;3385;48.928;10.330;2023-05-07T06:03:02;13.50;99.90
6696;DHT22;3385;48.928;10.330;2023-05-07T06:05:27;13.40;99.90
6696;DHT22;3385;48.928;10.330;2023-05-07T06:07:53;13.30;99.90
6696;DHT22;3385;48.928;10.330;2023-05-07T06:10:19;13.20;99.90
6696;DHT22;3385;48.928;10.330;2023-05-07T06:12:45;13.10;99.90
6696;DHT22;3385;48.928;10.330;2023-05-07T06:15:10;13.20;99.90
6696;DHT22;3385;48.928;10.330;2023-05-07T06:17:36;13.10;99.90
6696;DHT22;3385;48.928;10.330;2023-05-07T06:20:02;13.10;99.90
6696;DHT22;3385;48.928;10.330;2023-05-07T06:22:28;12.90;99.90
6696;DHT22;3385;48.928;10.330;2023-05-07T06:24:53;13.00;99.90
6696;DHT22;3385;48.928;10.330;2023-05-07T06:27:19;13.00;99.90
6696;DHT22;3385;48.928;10.330;2023-05-07T06:29:45;13.20;99.90
6696;DHT22;3385;48.928;10.330;2023-05-07T06:32:12;13.40;99.90
6696;DHT22;3385;48.928;10.330;2023-05-07T06:34:38;13.70;99.90
6696;DHT22;3385;48.928;10.330;2023-05-07T06:37:05;13.80;99.90
6696;DHT22;3385;48.928;10.330;2023-05-07T06:39:31;14.00;99.90
6696;DHT22;3385;48.928;10.330;2023-05-07T06:41:57;14.20;99.90
6696;DHT22;3385;48.928;10.330;2023-05-07T06:44:23;14.40;99.90
6696;DHT22;3385;48.928;10.330;2023-05-07T06:46:49;14.80;99.90
6696;DHT22;3385;48.928;10.330;2023-05-07T06:49:14;14.90;99.90
6696;DHT22;3385;48.928;10.330;2023-05-07T06:51:41;15.00;99.90
6696;DHT22;3385;48.928;10.330;2023-05-07T06:54:07;16.20;99.90
6696;DHT22;3385;48.928;10.330;2023-05-07T06:56:33;15.50;99.90
6696;DHT22;3385;48.928;10.330;2023-05-07T06:59:03;15.70;99.90
6696;DHT22;3385;48.928;10.330;2023-05-07T07:01:29;15.70;99.90
6696;DHT22;3385;48.928;10.330;2023-05-07T07:03:55;15.70;99.90
6696;DHT22;3385;48.928;10.330;2023-05-07T07:06:20;15.60;99.90
6696;DHT22;3385;48.928;10.330;2023-05-07T07:08:46;15.50;99.90
6696;DHT22;3385;48.928;10.330;2023-05-07T07:11:12;15.40;99.90
6696;DHT22;3385;48.928;10.330;2023-05-07T07:13:38;15.60;99.90
6696;DHT22;3385;48.928;10.330;2023-05-07T07:16:03;15.60;99.90
6696;DHT22;3385;48.928;10.330;2023-05-07T07:18:29;15.70;99.90
6696;DHT22;3385;48.928;10.330;2023-05-07T07:20:55;15.70;99.90
6696;DHT22;3385;48.928;10.330;2023-05-07T07:23:21;15.90;99.90
6696;DHT22;3385;48.928;10.330;2023-05-07T07:25:46;15.90;99.90
6696;DHT22;3385;48.928;10.330;2023-05-07T07:28:12;15.90;99.90
6696;DHT22;3385;48.928;10.330;2023-05-07T07:30:39;16.10;99.90
6696;DHT22;3385;48.928;10.330;2023-05-07T07:33:05;16.10;99.90
6696;DHT22;3385;48.928;10.330;2023-05-07T07:35:31;16.00;99.90
6696;DHT22;3385;48.928;10.330;2023-05-07T07:37:57;16.10;99.90
6696;DHT22;3385;48.928;10.330;2023-05-07T07:40:24;16.30;99.90
6696;DHT22;3385;48.928;10.330;2023-05-07T07:42:51;16.50;99.90
6696;DHT22;3385;48.928;10.330;2023-05-07T07:45:16;16.90;99.90
6696;DHT22;3385;48.928;10.330;2023-05-07T07:47:42;17.10;99.90
6696;DHT22;3385;48.928;10.330;2023-05-07T07:50:09;17.10;99.90
6696;DHT22;3385;48.928;10.330;2023-05-07T07:52:35;17.10;99.90
6696;DHT22;3385;48.928;10.330;2023-05-07T07:55:01;17.00;99.90
6696;DHT22;3385;48.928;10.330;2023-05-07T07:57:27;17.10;99.90
6696;DHT22;3385;48.928;10.330;2023-05-07T07:59:53;17.10;99.90
6696;DHT22;3385;48.928;10.330;2023-05-07T08:02:18;17.00;99.90
6696;DHT22;3385;48.928;10.330;2023-05-07T08:04:44;17.10;99.90
6696;DHT22;3385;48.928;10.330;2023-05-07T08:07:10;17.10;99.90
6696;DHT22;3385;48.928;10.330;2023-05-07T08:09:39;17.00;99.90
6696;DHT22;3385;48.928;10.330;2023-05-07T08:12:06;17.10;99.90
6696;DHT22;3385;48.928;10.330;2023-05-07T08:14:33;17.50;99.90
6696;DHT22;3385;48.928;10.330;2023-05-07T08:16:59;17.90;99.90
6696;DHT22;3385;48.928;10.330;2023-05-07T08:19:24;18.00;99.90
6696;DHT22;3385;48.928;10.330;2023-05-07T08:21:50;18.30;99.90
6696;DHT22;3385;48.928;10.330;2023-05-07T08:24:16;18.40;99.90
6696;DHT22;3385;48.928;10.330;2023-05-07T08:26:44;18.70;99.90
6696;DHT22;3385;48.928;10.330;2023-05-07T08:29:10;18.90;99.90
6696;DHT22;3385;48.928;10.330;2023-05-07T08:31:36;19.10;99.90
6696;DHT22;3385;48.928;10.330;2023-05-07T08:34:04;19.00;99.90
6696;DHT22;3385;48.928;10.330;2023-05-07T08:36:30;19.00;99.90
6696;DHT22;3385;48.928;10.330;2023-05-07T08:38:56;18.80;99.90
6696;DHT22;3385;48.928;10.330;2023-05-07T08:41:22;18.70;99.90
6696;DHT22;3385;48.928;10.330;2023-05-07T08:43:49;18.60;99.90
6696;DHT22;3385;48.928;10.330;2023-05-07T08:46:21;18.40;99.90
6696;DHT22;3385;48.928;10.330;2023-05-07T08:48:51;18.20;99.90
6696;DHT22;3385;48.928;10.330;2023-05-07T08:51:19;18.30;99.90
6696;DHT22;3385;48.928;10.330;2023-05-07T08:53:46;18.40;99.90
6696;DHT22;3385;48.928;10.330;2023-05-07T08:56:14;18.50;99.90
6696;DHT22;3385;48.928;10.330;2023-05-07T08:58:41;18.50;99.90
6696;DHT22;3385;48.928;10.330;2023-05-07T09:01:09;18.40;99.90
6696;DHT22;3385;48.928;10.330;2023-05-07T09:03:37;18.40;99.90
6696;DHT22;3385;48.928;10.330;2023-05-07T09:06:04;18.70;99.90
6696;DHT22;3385;48.928;10.330;2023-05-07T09:08:31;19.10;99.90
6696;DHT22;3385;48.928;10.330;2023-05-07T09:10:57;19.30;99.90
6696;DHT22;3385;48.928;10.330;2023-05-07T09:13:23;19.80;99.90
6696;DHT22;3385;48.928;10.330;2023-05-07T09:15:49;20.10;99.90
6696;DHT22;3385;48.928;10.330;2023-05-07T09:18:15;20.10;99.90
6696;DHT22;3385;48.928;10.330;2023-05-07T09:20:41;20.10;99.90
6696;DHT22;3385;48.928;10.330;2023-05-07T09:23:07;19.80;99.90
6696;DHT22;3385;48.928;10.330;2023-05-07T09:25:34;19.60;99.90
6696;DHT22;3385;48.928;10.330;2023-05-07T09:28:01;19.50;99.90
6696;DHT22;3385;48.928;10.330;2023-05-07T09:30:31;19.60;99.90
6696;DHT22;3385;48.928;10.330;2023-05-07T09:33:01;19.50;99.90
6696;DHT22;3385;48.928;10.330;2023-05-07T09:35:28;19.80;99.90
6696;DHT22;3385;48.928;10.330;2023-05-07T09:37:55;19.60;99.90
6696;DHT22;3385;48.928;10.330;2023-05-07T09:40:25;20.10;99.90
6696;DHT22;3385;48.928;10.330;2023-05-07T09:42:52;19.90;99.90
6696;DHT22;3385;48.928;10.330;2023-05-07T09:45:28;19.90;99.90
6696;DHT22;3385;48.928;10.330;2023-05-07T09:47:55;20.10;99.90
6696;DHT22;3385;48.928;10.330;2023-05-07T09:50:26;20.10;99.90
6696;DHT22;3385;48.928;10.330;2023-05-07T09:52:54;20.50;99.90
6696;DHT22;3385;48.928;10.330;2023-05-07T09:55:21;20.80;99.90
6696;DHT22;3385;48.928;10.330;2023-05-07T09:57:50;20.90;99.90
6696;DHT22;3385;48.928;10.330;2023-05-07T10:00:19;21.10;99.90
6696;DHT22;3385;48.928;10.330;2023-05-07T10:02:50;21.20;99.90
6696;DHT22;3385;48.928;10.330;2023-05-07T10:05:18;21.40;99.90
6696;DHT22;3385;48.928;10.330;2023-05-07T10:07:46;21.60;99.90
6696;DHT22;3385;48.928;10.330;2023-05-07T10:10:12;22.00;99.90
6696;DHT22;3385;48.928;10.330;2023-05-07T10:12:38;22.10;99.90
6696;DHT22;3385;48.928;10.330;2023-05-07T10:15:10;21.90;99.90
6696;DHT22;3385;48.928;10.330;2023-05-07T10:17:37;22.10;99.90
6696;DHT22;3385;48.928;10.330;2023-05-07T10:20:04;22.10;99.90
6696;DHT22;3385;48.928;10.330;2023-05-07T10:22:37;22.10;99.90
6696;DHT22;3385;48.928;10.330;2023-05-07T10:25:08;21.90;99.90
6696;DHT22;3385;48.928;10.330;2023-05-07T10:27:35;22.10;99.90
6696;DHT22;3385;48.928;10.330;2023-05-07T10:30:26;22.00;99.90
6696;DHT22;3385;48.928;10.330;2023-05-07T10:32:56;21.80;99.90
6696;DHT22;3385;48.928;10.330;2023-05-07T10:35:32;22.10;99.90
6696;DHT22;3385;48.928;10.330;2023-05-07T10:38:02;22.30;99.90
6696;DHT22;3385;48.928;10.330;2023-05-07T10:40:28;22.80;99.90
6696;DHT22;3385;48.928;10.330;2023-05-07T10:42:59;23.00;99.90
6696;DHT22;3385;48.928;10.330;2023-05-07T10:45:26;23.20;99.90
6696;DHT22;3385;48.928;10.330;2023-05-07T10:48:09;23.50;99.90
6696;DHT22;3385;48.928;10.330;2023-05-07T10:50:36;23.60;99.90
6696;DHT22;3385;48.928;10.330;2023-05-07T10:53:23;24.00;99.90
6696;DHT22;3385;48.928;10.330;2023-05-07T10:58:44;23.60;99.90
6696;DHT22;3385;48.928;10.330;2023-05-07T11:01:10;23.00;99.90
6696;DHT22;3385;48.928;10.330;2023-05-07T11:04:13;22.70;99.90
6696;DHT22;3385;48.928;10.330;2023-05-07T11:06:40;23.30;99.90
6696;DHT22;3385;48.928;10.330;2023-05-07T11:09:06;23.70;99.90
6696;DHT22;3385;48.928;10.330;2023-05-07T11:11:49;23.80;99.90
6696;DHT22;3385;48.928;10.330;2023-05-07T11:17:07;24.10;99.90
6696;DHT22;3385;48.928;10.330;2023-05-07T11:19:52;24.40;99.90
6696;DHT22;3385;48.928;10.330;2023-05-07T11:22:45;24.50;99.90
6696;DHT22;3385;48.928;10.330;2023-05-07T11:25:17;24.60;99.90
6696;DHT22;3385;48.928;10.330;2023-05-07T11:27:43;24.10;99.90
6696;DHT22;3385;48.928;10.330;2023-05-07T11:30:10;23.80;99.90
6696;DHT22;3385;48.928;10.330;2023-05-07T11:32:36;23.80;99.90
6696;DHT22;3385;48.928;10.330;2023-05-07T11:35:02;27.50;99.90
6696;DHT22;3385;48.928;10.330;2023-05-07T11:37:28;24.50;99.90
6696;DHT22;3385;48.928;10.330;2023-05-07T11:40:08;24.90;99.90
6696;DHT22;3385;48.928;10.330;2023-05-07T11:42:40;25.00;99.90
6696;DHT22;3385;48.928;10.330;2023-05-07T11:45:08;25.40;99.90
6696;DHT22;3385;48.928;10.330;2023-05-07T11:47:35;25.60;99.90
6696;DHT22;3385;48.928;10.330;2023-05-07T11:50:05;25.20;99.90
6696;DHT22;3385;48.928;10.330;2023-05-07T11:52:32;25.00;99.90
6696;DHT22;3385;48.928;10.330;2023-05-07T11:54:58;25.50;99.90
6696;DHT22;3385;48.928;10.330;2023-05-07T11:57:26;26.00;99.90
6696;DHT22;3385;48.928;10.330;2023-05-07T11:59:59;26.10;99.90
6696;DHT22;3385;48.928;10.330;2023-05-07T12:02:27;26.40;99.90
6696;DHT22;3385;48.928;10.330;2023-05-07T12:05:00;26.80;99.90
6696;DHT22;3385;48.928;10.330;2023-05-07T12:07:26;26.70;99.90
6696;DHT22;3385;48.928;10.330;2023-05-07T12:09:52;27.00;99.90
6696;DHT22;3385;48.928;10.330;2023-05-07T12:12:18;27.20;99.90
6696;DHT22;3385;48.928;10.330;2023-05-07T12:14:45;27.20;99.90
6696;DHT22;3385;48.928;10.330;2023-05-07T12:17:13;26.30;99.90
6696;DHT22;3385;48.928;10.330;2023-05-07T12:19:41;25.70;99.90
6696;DHT22;3385;48.928;10.330;2023-05-07T12:22:08;25.70;99.90
6696;DHT22;3385;48.928;10.330;2023-05-07T12:27:10;26.60;99.90
6696;DHT22;3385;48.928;10.330;2023-05-07T12:29:36;27.20;99.90
6696;DHT22;3385;48.928;10.330;2023-05-07T12:32:06;27.60;99.90
6696;DHT22;3385;48.928;10.330;2023-05-07T12:34:31;27.50;99.90
6696;DHT22;3385;48.928;10.330;2023-05-07T12:36:57;28.60;99.90
6696;DHT22;3385;48.928;10.330;2023-05-07T12:39:27;29.60;99.90
6696;DHT22;3385;48.928;10.330;2023-05-07T12:41:56;30.10;99.90
6696;DHT22;3385;48.928;10.330;2023-05-07T12:44:24;30.30;99.90
6696;DHT22;3385;48.928;10.330;2023-05-07T12:46:51;30.30;99.90
6696;DHT22;3385;48.928;10.330;2023-05-07T12:49:17;30.10;99.90
6696;DHT22;3385;48.928;10.330;2023-05-07T12:51:47;31.20;99.90
6696;DHT22;3385;48.928;10.330;2023-05-07T12:54:27;32.30;99.90
6696;DHT22;3385;48.928;10.330;2023-05-07T12:57:01;31.80;99.90
6696;DHT22;3385;48.928;10.330;2023-05-07T12:59:36;31.00;99.90
6696;DHT22;3385;48.928;10.330;2023-05-07T13:02:02;30.30;99.90
6696;DHT22;3385;48.928;10.330;2023-05-07T13:04:28;30.00;99.90
6696;DHT22;3385;48.928;10.330;2023-05-07T13:06:54;29.80;99.90
6696;DHT22;3385;48.928;10.330;2023-05-07T13:09:20;29.80;99.90
6696;DHT22;3385;48.928;10.330;2023-05-07T13:11:46;29.80;99.90
6696;DHT22;3385;48.928;10.330;2023-05-07T13:14:12;29.60;99.90
6696;DHT22;3385;48.928;10.330;2023-05-07T13:16:37;29.40;99.90
6696;DHT22;3385;48.928;10.330;2023-05-07T13:19:03;29.30;99.90
6696;DHT22;3385;48.928;10.330;2023-05-07T13:21:30;29.70;99.90
6696;DHT22;3385;48.928;10.330;2023-05-07T13:23:59;30.10;99.90
6696;DHT22;3385;48.928;10.330;2023-05-07T13:26:25;30.10;99.90
6696;DHT22;3385;48.928;10.330;2023-05-07T13:28:51;29.60;99.90
6696;DHT22;3385;48.928;10.330;2023-05-07T13:31:17;29.00;99.90
6696;DHT22;3385;48.928;10.330;2023-05-07T13:33:43;28.90;99.90
6696;DHT22;3385;48.928;10.330;2023-05-07T13:36:09;28.30;99.90
6696;DHT22;3385;48.928;10.330;2023-05-07T13:38:34;27.70;99.90
6696;DHT22;3385;48.928;10.330;2023-05-07T13:41:01;27.00;99.90
6696;DHT22;3385;48.928;10.330;2023-05-07T13:43:26;26.40;99.90
6696;DHT22;3385;48.928;10.330;2023-05-07T13:45:52;26.00;99.90
6696;DHT22;3385;48.928;10.330;2023-05-07T13:48:18;25.90;99.90
6696;DHT22;3385;48.928;10.330;2023-05-07T13:50:44;25.50;99.90
6696;DHT22;3385;48.928;10.330;2023-05-07T13:53:09;25.30;99.90
6696;DHT22;3385;48.928;10.330;2023-05-07T13:55:35;24.70;99.90
6696;DHT22;3385;48.928;10.330;2023-05-07T13:58:02;24.30;99.90
6696;DHT22;3385;48.928;10.330;2023-05-07T14:00:28;24.20;99.90
6696;DHT22;3385;48.928;10.330;2023-05-07T14:02:55;24.10;99.90
6696;DHT22;3385;48.928;10.330;2023-05-07T14:05:22;24.00;99.90
6696;DHT22;3385;48.928;10.330;2023-05-07T14:07:52;23.80;99.90
6696;DHT22;3385;48.928;10.330;2023-05-07T14:10:18;23.50;99.90
6696;DHT22;3385;48.928;10.330;2023-05-07T14:12:45;23.20;99.90
6696;DHT22;3385;48.928;10.330;2023-05-07T14:15:11;23.00;99.90
6696;DHT22;3385;48.928;10.330;2023-05-07T14:17:37;22.80;99.90
6696;DHT22;3385;48.928;10.330;2023-05-07T14:20:03;22.60;99.90
6696;DHT22;3385;48.928;10.330;2023-05-07T14:22:29;22.60;99.90
6696;DHT22;3385;48.928;10.330;2023-05-07T14:24:54;22.60;99.90
6696;DHT22;3385;48.928;10.330;2023-05-07T14:27:20;22.40;99.90
6696;DHT22;3385;48.928;10.330;2023-05-07T14:29:46;22.40;99.90
6696;DHT22;3385;48.928;10.330;2023-05-07T14:32:20;22.40;99.90
6696;DHT22;3385;48.928;10.330;2023-05-07T14:34:46;22.40;99.90
6696;DHT22;3385;48.928;10.330;2023-05-07T14:37:12;22.40;99.90
6696;DHT22;3385;48.928;10.330;2023-05-07T14:39:38;22.20;99.90
6696;DHT22;3385;48.928;10.330;2023-05-07T14:42:04;22.00;99.90
6696;DHT22;3385;48.928;10.330;2023-05-07T14:44:30;22.00;99.90
6696;DHT22;3385;48.928;10.330;2023-05-07T14:46:56;22.00;99.90
6696;DHT22;3385;48.928;10.330;2023-05-07T14:49:22;22.00;99.90
6696;DHT22;3385;48.928;10.330;2023-05-07T14:51:49;21.90;99.90
6696;DHT22;3385;48.928;10.330;2023-05-07T14:54:15;21.90;99.90
6696;DHT22;3385;48.928;10.330;2023-05-07T14:56:41;22.00;99.90
6696;DHT22;3385;48.928;10.330;2023-05-07T14:59:08;21.90;99.90
6696;DHT22;3385;48.928;10.330;2023-05-07T15:01:35;21.90;99.90
6696;DHT22;3385;48.928;10.330;2023-05-07T15:04:03;21.90;99.90
6696;DHT22;3385;48.928;10.330;2023-05-07T15:06:29;21.80;99.90
6696;DHT22;3385;48.928;10.330;2023-05-07T15:08:55;21.80;99.90
6696;DHT22;3385;48.928;10.330;2023-05-07T15:11:20;21.80;99.90
6696;DHT22;3385;48.928;10.330;2023-05-07T15:13:46;21.70;99.90
6696;DHT22;3385;48.928;10.330;2023-05-07T15:16:12;21.60;99.90
6696;DHT22;3385;48.928;10.330;2023-05-07T15:18:38;21.50;99.90
6696;DHT22;3385;48.928;10.330;2023-05-07T15:21:04;21.60;99.90
6696;DHT22;3385;48.928;10.330;2023-05-07T15:23:30;21.50;99.90
6696;DHT22;3385;48.928;10.330;2023-05-07T15:25:57;21.50;99.90
6696;DHT22;3385;48.928;10.330;2023-05-07T15:28:23;21.50;99.90
6696;DHT22;3385;48.928;10.330;2023-05-07T15:30:50;21.50;99.90
6696;DHT22;3385;48.928;10.330;2023-05-07T15:33:16;21.50;99.90
6696;DHT22;3385;48.928;10.330;2023-05-07T15:35:42;21.60;99.90
6696;DHT22;3385;48.928;10.330;2023-05-07T15:38:07;24.40;99.90
6696;DHT22;3385;48.928;10.330;2023-05-07T15:40:34;21.40;99.90
6696;DHT22;3385;48.928;10.330;2023-05-07T15:43:03;21.30;99.90
6696;DHT22;3385;48.928;10.330;2023-05-07T15:45:28;21.20;99.90
6696;DHT22;3385;48.928;10.330;2023-05-07T15:47:54;21.10;99.90
6696;DHT22;3385;48.928;10.330;2023-05-07T15:50:20;21.10;99.90
6696;DHT22;3385;48.928;10.330;2023-05-07T15:52:46;21.00;99.90
6696;DHT22;3385;48.928;10.330;2023-05-07T15:55:12;20.90;99.90
6696;DHT22;3385;48.928;10.330;2023-05-07T15:57:37;21.00;99.90